Boone, IA

3:32 AM CDT on May 23, 2017 (GMT -0500)
Boone Municipal

Weather History for KBNW - July, 2013

Change the Weather History Date:

Monday, July 1, 2013

  Actual Average Record
Temperature  
Mean Temperature 68 °F -  
Max Temperature 81 °F 84 °F 102 °F (1963)
Min Temperature 55 °F 59 °F 48 °F (1988)
Cooling Degree Days 3    
Growing Degree Days 18 (Base 50)    
Moisture  
Dew Point 50 °F    
Average Humidity 54    
Maximum Humidity 82    
Minimum Humidity 30    
Precipitation  
Precipitation 0.00 in - - ()
Sea Level Pressure  
Sea Level Pressure 30.15 in    
Wind  
Wind Speed 8 mph (NNE)    
Max Wind Speed 17 mph    
Max Gust Speed 30 mph    
Visibility 10 miles    
Events      
Averages and records for this station are not official NWS values.
T = Trace of Precipitation, MM = Missing Value Source: NWS Daily Summary

Daily Weather History Graph

Daily Weather History Graph

Search for Another Location

Airport or City:

Trip Planner

Search our weather history database for the weather conditions in past years. The results will help you decide how hot, cold, wet, or windy it might be!

Date:

Astronomy

Jul. 01, 2013 Rise Set
Actual Time 5:43 AM CDT 8:54 PM CDT
Civil Twilight 5:09 AM CDT 9:29 PM CDT
Nautical Twilight 4:25 AM CDT 10:13 PM CDT
Astronomical Twilight 3:32 AM CDT 11:06 PM CDT
Moon 1:17 AM CDT (7/1) 3:07 PM CDT (7/1)
Length of Visible Light 16h 19m
Length of Day
15h 11m
Waning Crescent, 35% of the Moon is Illuminated
Jul 1
Waning Crescent
Jul 8
New
Jul 15
First Quarter
Jul 22
Full
Jul 29
Last Quarter

Hourly Weather History & Observations

Time (CDT) Temp. Dew Point Humidity Pressure Visibility Wind Dir Wind Speed Gust Speed Precip Events Conditions
12:15 AM 57.6 °F 49.1 °F 73% 30.12 in 10.0 mi North 3.5 mph - N/A   Clear
12:35 AM 57.4 °F 49.1 °F 74% 30.12 in 10.0 mi North 4.6 mph - N/A   Clear
12:55 AM 57.4 °F 49.1 °F 74% 30.12 in 10.0 mi North 6.9 mph - N/A   Clear
1:15 AM 57.9 °F 48.9 °F 72% 30.12 in 10.0 mi NNW 5.8 mph - N/A   Clear
1:35 AM 57.6 °F 49.5 °F 74% 30.12 in 10.0 mi NNW 5.8 mph - N/A   Clear
1:55 AM 58.1 °F 49.5 °F 73% 30.12 in 10.0 mi North 5.8 mph - N/A   Clear
2:15 AM 57.6 °F 49.6 °F 75% 30.12 in 10.0 mi NNW 6.9 mph - N/A   Clear
2:35 AM 57.7 °F 50.0 °F 75% 30.12 in 10.0 mi NNW 6.9 mph - N/A   Clear
2:55 AM 57.9 °F 50.0 °F 75% 30.12 in 10.0 mi NNW 6.9 mph - N/A   Clear
3:15 AM 57.2 °F 50.0 °F 77% 30.13 in 10.0 mi NNW 6.9 mph - N/A   Clear
3:35 AM 56.5 °F 50.0 °F 79% 30.13 in 10.0 mi NNW 6.9 mph - N/A   Clear
3:55 AM 56.3 °F 50.2 °F 80% 30.13 in 10.0 mi NNW 5.8 mph - N/A   Clear
4:15 AM 56.3 °F 50.2 °F 80% 30.13 in 10.0 mi NNW 6.9 mph - N/A   Clear
4:35 AM 56.5 °F 50.2 °F 79% 30.14 in 10.0 mi NNW 8.1 mph - N/A   Clear
4:55 AM 56.3 °F 50.0 °F 79% 30.14 in 10.0 mi NNW 8.1 mph - N/A   Clear
5:15 AM 55.9 °F 50.4 °F 82% 30.14 in 10.0 mi NNW 6.9 mph - N/A   Clear
5:35 AM 55.9 °F 50.5 °F 82% 30.14 in 10.0 mi NNW 9.2 mph - N/A   Clear
5:55 AM 56.3 °F 50.5 °F 81% 30.14 in 10.0 mi NNW 8.1 mph - N/A   Clear
6:15 AM 56.3 °F 50.9 °F 82% 30.15 in 10.0 mi NNW 9.2 mph - N/A   Clear
6:35 AM 57.0 °F 51.1 °F 81% 30.15 in 10.0 mi NNW 8.1 mph - N/A   Clear
6:55 AM 58.1 °F 51.8 °F 80% 30.16 in 10.0 mi NNW 6.9 mph - N/A   Clear
7:15 AM 60.4 °F 52.9 °F 76% 30.16 in 10.0 mi NNW 8.1 mph - N/A   Clear
7:35 AM 62.6 °F 53.8 °F 73% 30.16 in 10.0 mi NNW 8.1 mph - N/A   Clear
7:55 AM 65.5 °F 53.6 °F 65% 30.17 in 10.0 mi NNW 8.1 mph - N/A   Clear
8:15 AM 67.6 °F 53.2 °F 60% 30.17 in 10.0 mi North 6.9 mph - N/A   Clear
8:35 AM 69.1 °F 53.8 °F 58% 30.17 in 10.0 mi Calm Calm - N/A   Clear
8:55 AM 68.9 °F 53.8 °F 58% 30.18 in 10.0 mi North 3.5 mph - N/A   Clear
9:15 AM 70.3 °F 54.3 °F 57% 30.18 in 10.0 mi North 4.6 mph - N/A   Scattered Clouds
9:35 AM 71.8 °F 54.5 °F 54% 30.17 in 10.0 mi North 5.8 mph - N/A   Scattered Clouds
9:55 AM 73.8 °F 54.9 °F 52% 30.17 in 10.0 mi NNE 8.1 mph - N/A   Clear
10:15 AM 74.8 °F 54.0 °F 48% 30.17 in 10.0 mi North 9.2 mph - N/A   Clear
10:35 AM 76.1 °F 53.6 °F 45% 30.17 in 10.0 mi NNE 8.1 mph - N/A   Clear
10:55 AM 77.0 °F 50.0 °F 39% 30.17 in 10.0 mi NE 11.5 mph 16.1 mph N/A   Clear
11:15 AM 78.3 °F 48.7 °F 35% 30.17 in 10.0 mi NNE 13.8 mph - N/A   Clear
11:35 AM 78.8 °F 45.1 °F 30% 30.17 in 10.0 mi NE 13.8 mph 18.4 mph N/A   Clear
11:55 AM 79.3 °F 46.0 °F 31% 30.17 in 10.0 mi NNE 15.0 mph 20.7 mph N/A   Clear
12:15 PM 79.0 °F 45.3 °F 30% 30.16 in 10.0 mi NE 12.7 mph - N/A   Clear
12:35 PM 79.2 °F 45.9 °F 31% 30.16 in 10.0 mi NNE 13.8 mph 18.4 mph N/A   Clear
12:55 PM 79.7 °F 46.2 °F 31% 30.16 in 10.0 mi NNE 13.8 mph 18.4 mph N/A   Clear
1:15 PM 80.1 °F 46.8 °F 31% 30.15 in 10.0 mi NE 15.0 mph - N/A   Clear
1:35 PM 80.2 °F 46.0 °F 30% 30.15 in 10.0 mi NNE 13.8 mph - N/A   Clear
1:55 PM 80.1 °F 46.8 °F 31% 30.15 in 10.0 mi NNE 13.8 mph 29.9 mph N/A   Scattered Clouds
2:15 PM 80.8 °F 46.9 °F 30% 30.15 in 10.0 mi NNE 17.3 mph 21.9 mph N/A   Clear
2:35 PM 80.6 °F 46.2 °F 30% 30.14 in 10.0 mi NNE 13.8 mph 20.7 mph N/A   Clear
2:55 PM 80.6 °F 46.6 °F 30% 30.14 in 10.0 mi NE 13.8 mph 19.6 mph N/A   Clear
3:15 PM 80.8 °F 47.3 °F 31% 30.14 in 10.0 mi NNE 11.5 mph - N/A   Clear
3:35 PM 80.8 °F 47.7 °F 31% 30.14 in 10.0 mi NNE 11.5 mph - N/A   Clear
3:55 PM 81.0 °F 48.6 °F 32% 30.14 in 10.0 mi NNE 12.7 mph 16.1 mph N/A   Clear
4:15 PM 80.6 °F 48.2 °F 32% 30.14 in 10.0 mi NE 11.5 mph 17.3 mph N/A   Clear
4:35 PM 80.2 °F 46.9 °F 31% 30.14 in 10.0 mi NE 12.7 mph 17.3 mph N/A   Clear
4:55 PM 79.9 °F 46.0 °F 30% 30.14 in 10.0 mi NE 11.5 mph - N/A   Clear
5:15 PM 80.1 °F 46.2 °F 30% 30.14 in 10.0 mi NE 17.3 mph 21.9 mph N/A   Clear
5:35 PM 79.3 °F 45.0 °F 30% 30.14 in 10.0 mi ENE 13.8 mph - N/A   Clear
5:55 PM 79.2 °F 46.0 °F 31% 30.13 in 10.0 mi NE 15.0 mph 18.4 mph N/A   Clear
6:15 PM 78.8 °F 45.9 °F 31% 30.13 in 10.0 mi ENE 11.5 mph - N/A   Clear
6:35 PM 78.1 °F 46.6 °F 33% 30.13 in 10.0 mi ENE 15.0 mph 19.6 mph N/A   Clear
6:55 PM 77.5 °F 46.6 °F 33% 30.13 in 10.0 mi NE 9.2 mph 17.3 mph N/A   Clear
7:15 PM 76.8 °F 47.5 °F 35% 30.13 in 10.0 mi ENE 10.4 mph - N/A   Clear
7:35 PM 75.7 °F 48.0 °F 37% 30.14 in 10.0 mi ENE 11.5 mph - N/A   Clear
7:55 PM 74.3 °F 49.1 °F 41% 30.14 in 10.0 mi ENE 8.1 mph - N/A   Clear
8:15 PM 72.3 °F 50.0 °F 45% 30.14 in 10.0 mi ENE 6.9 mph - N/A   Clear
8:35 PM 70.0 °F 50.5 °F 50% 30.14 in 10.0 mi ENE 5.8 mph - N/A   Clear
8:55 PM 68.0 °F 51.3 °F 55% 30.14 in 10.0 mi ENE 5.8 mph - N/A   Clear
9:15 PM 66.0 °F 51.8 °F 60% 30.14 in 10.0 mi NE 4.6 mph - N/A   Clear
9:35 PM 64.4 °F 52.5 °F 65% 30.14 in 10.0 mi NE 4.6 mph - N/A   Clear
9:55 PM 64.8 °F 52.0 °F 63% 30.15 in 10.0 mi NE 4.6 mph - N/A   Clear
10:15 PM 63.5 °F 51.8 °F 66% 30.15 in 10.0 mi NE 4.6 mph - N/A   Clear
10:35 PM 63.7 °F 51.6 °F 65% 30.15 in 10.0 mi ENE 4.6 mph - N/A   Clear
10:55 PM 63.5 °F 51.3 °F 64% 30.16 in 10.0 mi ENE 5.8 mph - N/A   Clear
11:15 PM 63.0 °F 51.3 °F 66% 30.15 in 10.0 mi ENE 3.5 mph - N/A   Clear
11:35 PM 62.6 °F 51.3 °F 66% 30.16 in 10.0 mi NE 3.5 mph - N/A   Clear
11:55 PM 63.0 °F 51.4 °F 66% 30.16 in 10.0 mi NE 3.5 mph - N/A   Clear